Creole Ann — WDC3286 — position and weather

sailwx.info

Track history (hours):
 
Tides and Currents Weather Stations Pressure Air Temp Water Temp Dewpoint Dewpoint Depression Visibility Wind Speed Wind Dir Waves Ship Positions

Creole Ann

Owner: LeBeouf Bros. Towing, L.L.C., Houma, LA. More information available from US FCC via Universal Licensing System and Coast Guard Vessel Documentation Center.

Last reported at 2017-Oct-19 01:31 UTC. Time now 2017-Oct-19 01:45 UTC.
Position N 29°49' W 092°18'.

Length 20 m.

MMSI: 367005280.

Date/timePositionNaut miles runAvg speedWind from/ knotsBaromVisibWave heightAir tempDewpointWater temp
2017-Oct-19 01:31N 29°49' W 092°18'0 0.0
2017-Oct-19 01:01N 29°49' W 092°18'0 0.0
2017-Oct-19 00:31N 29°49' W 092°18'0 0.0
2017-Oct-19 00:01N 29°49' W 092°18'0 0.0
2017-Oct-18 23:30N 29°49' W 092°18'0 0.0
2017-Oct-18 22:59N 29°49' W 092°18'0 0.0
2017-Oct-18 22:31N 29°49' W 092°18'0 0.0
2017-Oct-18 21:59N 29°49' W 092°18'0 0.0
2017-Oct-18 21:30N 29°49' W 092°18'0 0.0
2017-Oct-18 21:00N 29°49' W 092°18'0 0.0
2017-Oct-18 20:30N 29°49' W 092°18'0 0.0
2017-Oct-18 20:00N 29°49' W 092°18'0 0.0
2017-Oct-18 19:29N 29°49' W 092°18'0 0.0
2017-Oct-18 18:58N 29°49' W 092°18'0 0.0
2017-Oct-18 18:30N 29°49' W 092°18'0 0.0
2017-Oct-18 18:00N 29°49' W 092°18'0 0.0
2017-Oct-18 17:30N 29°49' W 092°18'0 0.0
2017-Oct-18 17:00N 29°49' W 092°18'0 0.0
2017-Oct-18 16:30N 29°49' W 092°18'0 0.0
2017-Oct-18 16:01N 29°49' W 092°18'0 0.0
2017-Oct-18 15:30N 29°49' W 092°18'0 0.0
2017-Oct-18 15:01N 29°49' W 092°18'0 0.0
2017-Oct-18 14:00N 29°49' W 092°18'1 1.7
2017-Oct-18 13:30N 29°50' W 092°18'43 6.7
2017-Oct-18 07:08N 29°56' W 093°07'1 6.8
2017-Oct-18 06:58N 29°56' W 093°08'3 6.3
2017-Oct-18 06:30N 29°58' W 093°11'3 5.6
2017-Oct-18 05:54N 30°00' W 093°14'3 6.3
2017-Oct-18 05:30N 30°02' W 093°15'3 6.6
2017-Oct-18 05:00N 30°05' W 093°17'1 2.3
2017-Oct-18 04:31N 30°06' W 093°18'0 0.0
2017-Oct-18 04:01N 30°06' W 093°18'0 0.0
2017-Oct-18 03:31N 30°06' W 093°18'0 0.0
2017-Oct-18 03:01N 30°06' W 093°18'1 1.6
2017-Oct-18 02:31N 30°06' W 093°19'2 4.4
2017-Oct-18 02:01N 30°08' W 093°19'0 0.0
2017-Oct-18 01:31N 30°08' W 093°19'0 0.0
2017-Oct-18 01:01N 30°08' W 093°19'0 0.0
2017-Oct-18 00:30N 30°08' W 093°19'0 0.0
2017-Oct-18 00:01N 30°08' W 093°19'0 0.0
2017-Oct-17 23:30N 30°08' W 093°19'0 0.0
2017-Oct-17 23:01N 30°08' W 093°19'0 0.0
2017-Oct-17 22:31N 30°08' W 093°19'0 0.0
2017-Oct-17 22:01N 30°08' W 093°19'0 0.0
2017-Oct-17 21:30N 30°08' W 093°19'0 0.0
2017-Oct-17 21:00N 30°08' W 093°19'0 0.0
2017-Oct-17 20:30N 30°08' W 093°19'0 0.0
2017-Oct-17 20:01N 30°08' W 093°19'0 0.0
2017-Oct-17 19:30N 30°08' W 093°19'0 0.0
2017-Oct-17 19:01N 30°08' W 093°19'0 0.0
2017-Oct-17 18:30N 30°08' W 093°19'0 0.0
2017-Oct-17 18:00N 30°08' W 093°19'0 0.0
2017-Oct-17 17:31N 30°08' W 093°19'0 0.0
2017-Oct-17 17:00N 30°08' W 093°19'0 0.0
2017-Oct-17 16:31N 30°08' W 093°19'0 0.0
2017-Oct-17 16:00N 30°08' W 093°19'0 0.0
2017-Oct-17 15:31N 30°08' W 093°19'0 0.0
2017-Oct-17 15:00N 30°08' W 093°19'0 0.0
2017-Oct-17 14:31N 30°08' W 093°19'0 0.0
2017-Oct-17 14:00N 30°08' W 093°19'0 0.0
2017-Oct-17 13:30N 30°08' W 093°19'0 0.0
2017-Oct-17 13:01N 30°08' W 093°19'0 0.1
2017-Oct-17 12:30N 30°08' W 093°19'0 0.0
2017-Oct-17 12:00N 30°08' W 093°19'2 3.3
2017-Oct-17 11:31N 30°07' W 093°20'2 4.0
2017-Oct-17 11:01N 30°05' W 093°20'2 3.9
2017-Oct-17 10:30N 30°04' W 093°22'2 4.6
2017-Oct-17 10:01N 30°04' W 093°25'2 4.8
2017-Oct-17 09:30N 30°04' W 093°28'2 4.8
2017-Oct-17 09:00N 30°04' W 093°30'3 4.6
2017-Oct-17 08:26N 30°04' W 093°33'2 4.6
2017-Oct-17 07:59N 30°04' W 093°36'3 4.4
2017-Oct-17 07:25N 30°04' W 093°39'  
2017-Oct-14 14:12N 30°01' W 093°46'1 7.4
2017-Oct-14 14:00N 30°02' W 093°44'1 2.6
2017-Oct-14 13:29N 30°03' W 093°44'0 0.0
2017-Oct-14 12:57N 30°03' W 093°44'0 0.1
2017-Oct-14 12:30N 30°03' W 093°44'8 2.0
2017-Oct-14 08:41N 30°04' W 093°35'1 7.1
2017-Oct-14 08:29N 30°04' W 093°33'3 7.1
2017-Oct-14 08:00N 30°04' W 093°29'4 7.2
2017-Oct-14 07:30N 30°04' W 093°25'4 7.0
2017-Oct-14 07:00N 30°04' W 093°21'3 5.8
2017-Oct-14 06:30N 30°06' W 093°20'2 3.8
2017-Oct-14 06:00N 30°08' W 093°19'0 0.0
2017-Oct-14 05:30N 30°08' W 093°19'0 0.0
2017-Oct-14 05:01N 30°08' W 093°19'0 0.0
2017-Oct-14 04:31N 30°08' W 093°19'0 0.0
2017-Oct-14 04:01N 30°08' W 093°19'0 0.0
2017-Oct-14 03:31N 30°08' W 093°19'0 0.0
2017-Oct-14 03:00N 30°08' W 093°19'0 0.0
2017-Oct-14 02:30N 30°08' W 093°19'0 0.0
2017-Oct-14 02:01N 30°08' W 093°19'0 0.0
2017-Oct-14 01:31N 30°08' W 093°19'0 0.0
2017-Oct-14 01:00N 30°08' W 093°19'0 0.0
2017-Oct-14 00:30N 30°08' W 093°19'0 0.0
2017-Oct-14 00:01N 30°08' W 093°19'0 0.0
2017-Oct-13 23:31N 30°08' W 093°19'0 0.0
2017-Oct-13 23:00N 30°08' W 093°19'0 0.0
2017-Oct-13 22:30N 30°08' W 093°19'0 0.0
2017-Oct-13 22:01N 30°08' W 093°19'0 0.0
2017-Oct-13 21:30N 30°08' W 093°19'0 0.0
2017-Oct-13 21:01N 30°08' W 093°19'0 0.6
2017-Oct-13 20:30N 30°08' W 093°20'2 4.6
2017-Oct-13 20:01N 30°06' W 093°19'2 4.0
2017-Oct-13 19:31N 30°06' W 093°17'0 0.1
2017-Oct-13 19:01N 30°06' W 093°17'0 0.0
2017-Oct-13 18:31N 30°06' W 093°17'0 0.0
2017-Oct-13 18:00N 30°06' W 093°17'0 0.0
2017-Oct-13 17:31N 30°06' W 093°17'0 0.0
2017-Oct-13 17:00N 30°06' W 093°17'0 0.0
2017-Oct-13 16:31N 30°06' W 093°17'0 0.0
2017-Oct-13 16:01N 30°06' W 093°17'0 0.0
2017-Oct-13 15:30N 30°06' W 093°17'0 0.0
2017-Oct-13 15:01N 30°06' W 093°17'0 0.0
2017-Oct-13 14:31N 30°06' W 093°17'0 0.0
2017-Oct-13 14:00N 30°06' W 093°17'0 0.0
2017-Oct-13 13:30N 30°06' W 093°17'0 0.0
2017-Oct-13 13:01N 30°06' W 093°17'0 0.0
2017-Oct-13 12:31N 30°06' W 093°17'0 0.0
2017-Oct-13 12:01N 30°06' W 093°17'0 0.0
2017-Oct-13 11:31N 30°06' W 093°17'0 0.0
2017-Oct-13 11:01N 30°06' W 093°17'0 0.0
2017-Oct-13 10:30N 30°06' W 093°17'0 0.0
2017-Oct-13 10:01N 30°06' W 093°17'0 0.0
2017-Oct-13 09:30N 30°06' W 093°17'0 0.0
2017-Oct-13 09:01N 30°06' W 093°17'0 0.0
2017-Oct-13 08:30N 30°06' W 093°17'0 0.0
2017-Oct-13 08:01N 30°06' W 093°17'0 0.0
2017-Oct-13 07:31N 30°06' W 093°17'0 0.0
2017-Oct-13 07:01N 30°06' W 093°17'0 0.0
2017-Oct-13 06:30N 30°06' W 093°17'0 0.0
2017-Oct-13 06:00N 30°06' W 093°17'0 0.0
2017-Oct-13 05:31N 30°06' W 093°17'0 0.0
2017-Oct-13 05:00N 30°06' W 093°17'0 0.0
2017-Oct-13 04:30N 30°06' W 093°17'0 0.0
2017-Oct-13 04:00N 30°06' W 093°17'0 0.0
2017-Oct-13 03:30N 30°06' W 093°17'0 0.0
2017-Oct-13 03:00N 30°06' W 093°17'0 0.0
2017-Oct-13 02:30N 30°06' W 093°17'0 0.0
2017-Oct-13 02:00N 30°06' W 093°17'0 0.0
2017-Oct-13 01:30N 30°06' W 093°17'0 0.0
2017-Oct-13 01:00N 30°06' W 093°17'0 0.0
2017-Oct-13 00:30N 30°06' W 093°17'0 0.3
2017-Oct-13 00:01N 30°06' W 093°17'2 4.1
2017-Oct-12 23:30N 30°06' W 093°20'2 4.5
2017-Oct-12 23:01N 30°08' W 093°19'0 0.0
2017-Oct-12 22:31N 30°08' W 093°19'0 0.0
2017-Oct-12 22:01N 30°08' W 093°19'0 0.0
2017-Oct-12 21:31N 30°08' W 093°19'0 0.0
2017-Oct-12 21:00N 30°08' W 093°19'0 0.0
2017-Oct-12 20:31N 30°08' W 093°19'0 0.0
2017-Oct-12 20:01N 30°08' W 093°19'0 0.0
2017-Oct-12 19:30N 30°08' W 093°19'0 0.0
2017-Oct-12 19:01N 30°08' W 093°19'0 0.0
2017-Oct-12 18:30N 30°08' W 093°19'0 0.0
2017-Oct-12 18:01N 30°08' W 093°19'0 0.0
2017-Oct-12 17:31N 30°08' W 093°19'0 0.0
2017-Oct-12 17:01N 30°08' W 093°19'0 0.0
2017-Oct-12 16:31N 30°08' W 093°19'0 0.0
2017-Oct-12 16:00N 30°08' W 093°19'0 0.0
2017-Oct-12 15:31N 30°08' W 093°19'0 0.0
2017-Oct-12 15:01N 30°08' W 093°19'0 0.0
2017-Oct-12 14:31N 30°08' W 093°19'0 0.0
2017-Oct-12 14:01N 30°08' W 093°19'0 0.0
2017-Oct-12 13:30N 30°08' W 093°19'0 0.0
2017-Oct-12 13:00N 30°08' W 093°19'0 0.0
2017-Oct-12 12:31N 30°08' W 093°19'0 0.0
2017-Oct-12 12:01N 30°08' W 093°19'0 0.0
2017-Oct-12 11:31N 30°08' W 093°19'0 0.0
2017-Oct-12 11:01N 30°08' W 093°19'0 0.0
2017-Oct-12 10:30N 30°08' W 093°19'0 0.0
2017-Oct-12 10:00N 30°08' W 093°19'0 0.0
2017-Oct-12 09:31N 30°08' W 093°19'0 0.0
2017-Oct-12 09:01N 30°08' W 093°19'0 0.0
2017-Oct-12 08:31N 30°08' W 093°19'0 0.0
2017-Oct-12 08:01N 30°08' W 093°19'0 0.0
2017-Oct-12 07:30N 30°08' W 093°19'0 0.0
2017-Oct-12 07:00N 30°08' W 093°19'0 0.0
2017-Oct-12 06:31N 30°08' W 093°19'0 0.0
2017-Oct-12 06:00N 30°08' W 093°19'0 0.0
2017-Oct-12 05:31N 30°08' W 093°19'0 0.0
2017-Oct-12 05:00N 30°08' W 093°19'0 0.0
2017-Oct-12 04:31N 30°08' W 093°19'0 0.0
2017-Oct-12 04:01N 30°08' W 093°19'0 0.0
2017-Oct-12 03:31N 30°08' W 093°19'0 0.0
2017-Oct-12 03:01N 30°08' W 093°19'0 0.0
2017-Oct-12 02:31N 30°08' W 093°19'0 0.0
2017-Oct-12 02:00N 30°08' W 093°19'0 0.2
2017-Oct-12 01:31N 30°08' W 093°19'1 3.0
2017-Oct-12 01:01N 30°10' W 093°19'3 5.7
2017-Oct-12 00:31N 30°12' W 093°17'2 4.8
2017-Oct-12 00:01N 30°13' W 093°15'2 4.4
2017-Oct-11 23:31N 30°15' W 093°14'1 2.6
2017-Oct-11 23:01N 30°15' W 093°13'1 2.6
2017-Oct-11 22:30N 30°16' W 093°12'2 3.5
2017-Oct-11 22:01N 30°18' W 093°11'1 1.7
2017-Oct-11 21:25N 30°18' W 093°10'1 1.9
2017-Oct-11 21:01N 30°18' W 093°09'0 0.0
2017-Oct-09 19:10N 30°18' W 093°09'1 3.3
2017-Oct-09 18:57N 30°19' W 093°10'1 2.6
2017-Oct-09 18:30N 30°18' W 093°11'1 2.7
2017-Oct-09 18:01N 30°17' W 093°12'1 0.2
2017-Oct-09 15:03N 30°16' W 093°12'0 0.0
2017-Oct-09 15:01N 30°16' W 093°12'0 0.0
2017-Oct-09 03:43N 30°16' W 093°12'0 0.0
2017-Oct-09 03:26N 30°16' W 093°12'0 0.0
2017-Oct-09 03:00N 30°16' W 093°12'  
Track history (hours):
 
Tides and Currents Weather Stations Pressure Air Temp Water Temp Dewpoint Dewpoint Depression Visibility Wind Speed Wind Dir Waves Ship Positions

Creole Ann

Owner: LeBeouf Bros. Towing, L.L.C., Houma, LA. More information available from US FCC via Universal Licensing System and Coast Guard Vessel Documentation Center.

Last reported at 2017-Oct-19 01:31 UTC. Time now 2017-Oct-19 01:45 UTC.
Position N 29°49' W 092°18'.

Length 20 m.

MMSI: 367005280.

Date/timePositionNaut miles runAvg speedWind from/ knotsBaromVisibWave heightAir tempDewpointWater temp
2017-Oct-19 01:31N 29°49' W 092°18'0 0.0
2017-Oct-19 01:01N 29°49' W 092°18'0 0.0
2017-Oct-19 00:31N 29°49' W 092°18'0 0.0
2017-Oct-19 00:01N 29°49' W 092°18'0 0.0
2017-Oct-18 23:30N 29°49' W 092°18'0 0.0
2017-Oct-18 22:59N 29°49' W 092°18'0 0.0
2017-Oct-18 22:31N 29°49' W 092°18'0 0.0
2017-Oct-18 21:59N 29°49' W 092°18'0 0.0
2017-Oct-18 21:30N 29°49' W 092°18'0 0.0
2017-Oct-18 21:00N 29°49' W 092°18'0 0.0
2017-Oct-18 20:30N 29°49' W 092°18'0 0.0
2017-Oct-18 20:00N 29°49' W 092°18'0 0.0
2017-Oct-18 19:29N 29°49' W 092°18'0 0.0
2017-Oct-18 18:58N 29°49' W 092°18'0 0.0
2017-Oct-18 18:30N 29°49' W 092°18'0 0.0
2017-Oct-18 18:00N 29°49' W 092°18'0 0.0
2017-Oct-18 17:30N 29°49' W 092°18'0 0.0
2017-Oct-18 17:00N 29°49' W 092°18'0 0.0
2017-Oct-18 16:30N 29°49' W 092°18'0 0.0
2017-Oct-18 16:01N 29°49' W 092°18'0 0.0
2017-Oct-18 15:30N 29°49' W 092°18'0 0.0
2017-Oct-18 15:01N 29°49' W 092°18'0 0.0
2017-Oct-18 14:00N 29°49' W 092°18'1 1.7
2017-Oct-18 13:30N 29°50' W 092°18'43 6.7
2017-Oct-18 07:08N 29°56' W 093°07'1 6.8
2017-Oct-18 06:58N 29°56' W 093°08'3 6.3
2017-Oct-18 06:30N 29°58' W 093°11'3 5.6
2017-Oct-18 05:54N 30°00' W 093°14'3 6.3
2017-Oct-18 05:30N 30°02' W 093°15'3 6.6
2017-Oct-18 05:00N 30°05' W 093°17'1 2.3
2017-Oct-18 04:31N 30°06' W 093°18'0 0.0
2017-Oct-18 04:01N 30°06' W 093°18'0 0.0
2017-Oct-18 03:31N 30°06' W 093°18'0 0.0
2017-Oct-18 03:01N 30°06' W 093°18'1 1.6
2017-Oct-18 02:31N 30°06' W 093°19'2 4.4
2017-Oct-18 02:01N 30°08' W 093°19'0 0.0
2017-Oct-18 01:31N 30°08' W 093°19'0 0.0
2017-Oct-18 01:01N 30°08' W 093°19'0 0.0
2017-Oct-18 00:30N 30°08' W 093°19'0 0.0
2017-Oct-18 00:01N 30°08' W 093°19'0 0.0
2017-Oct-17 23:30N 30°08' W 093°19'0 0.0
2017-Oct-17 23:01N 30°08' W 093°19'0 0.0
2017-Oct-17 22:31N 30°08' W 093°19'0 0.0
2017-Oct-17 22:01N 30°08' W 093°19'0 0.0
2017-Oct-17 21:30N 30°08' W 093°19'0 0.0
2017-Oct-17 21:00N 30°08' W 093°19'0 0.0
2017-Oct-17 20:30N 30°08' W 093°19'0 0.0
2017-Oct-17 20:01N 30°08' W 093°19'0 0.0
2017-Oct-17 19:30N 30°08' W 093°19'0 0.0
2017-Oct-17 19:01N 30°08' W 093°19'0 0.0
2017-Oct-17 18:30N 30°08' W 093°19'0 0.0
2017-Oct-17 18:00N 30°08' W 093°19'0 0.0
2017-Oct-17 17:31N 30°08' W 093°19'0 0.0
2017-Oct-17 17:00N 30°08' W 093°19'0 0.0
2017-Oct-17 16:31N 30°08' W 093°19'0 0.0
2017-Oct-17 16:00N 30°08' W 093°19'0 0.0
2017-Oct-17 15:31N 30°08' W 093°19'0 0.0
2017-Oct-17 15:00N 30°08' W 093°19'0 0.0
2017-Oct-17 14:31N 30°08' W 093°19'0 0.0
2017-Oct-17 14:00N 30°08' W 093°19'0 0.0
2017-Oct-17 13:30N 30°08' W 093°19'0 0.0
2017-Oct-17 13:01N 30°08' W 093°19'0 0.1
2017-Oct-17 12:30N 30°08' W 093°19'0 0.0
2017-Oct-17 12:00N 30°08' W 093°19'2 3.3
2017-Oct-17 11:31N 30°07' W 093°20'2 4.0
2017-Oct-17 11:01N 30°05' W 093°20'2 3.9
2017-Oct-17 10:30N 30°04' W 093°22'2 4.6
2017-Oct-17 10:01N 30°04' W 093°25'2 4.8
2017-Oct-17 09:30N 30°04' W 093°28'2 4.8
2017-Oct-17 09:00N 30°04' W 093°30'3 4.6
2017-Oct-17 08:26N 30°04' W 093°33'2 4.6
2017-Oct-17 07:59N 30°04' W 093°36'3 4.4
2017-Oct-17 07:25N 30°04' W 093°39'  
2017-Oct-14 14:12N 30°01' W 093°46'1 7.4
2017-Oct-14 14:00N 30°02' W 093°44'1 2.6
2017-Oct-14 13:29N 30°03' W 093°44'0 0.0
2017-Oct-14 12:57N 30°03' W 093°44'0 0.1
2017-Oct-14 12:30N 30°03' W 093°44'8 2.0
2017-Oct-14 08:41N 30°04' W 093°35'1 7.1
2017-Oct-14 08:29N 30°04' W 093°33'3 7.1
2017-Oct-14 08:00N 30°04' W 093°29'4 7.2
2017-Oct-14 07:30N 30°04' W 093°25'4 7.0
2017-Oct-14 07:00N 30°04' W 093°21'3 5.8
2017-Oct-14 06:30N 30°06' W 093°20'2 3.8
2017-Oct-14 06:00N 30°08' W 093°19'0 0.0
2017-Oct-14 05:30N 30°08' W 093°19'0 0.0
2017-Oct-14 05:01N 30°08' W 093°19'0 0.0
2017-Oct-14 04:31N 30°08' W 093°19'0 0.0
2017-Oct-14 04:01N 30°08' W 093°19'0 0.0
2017-Oct-14 03:31N 30°08' W 093°19'0 0.0
2017-Oct-14 03:00N 30°08' W 093°19'0 0.0
2017-Oct-14 02:30N 30°08' W 093°19'0 0.0
2017-Oct-14 02:01N 30°08' W 093°19'0 0.0
2017-Oct-14 01:31N 30°08' W 093°19'0 0.0
2017-Oct-14 01:00N 30°08' W 093°19'0 0.0
2017-Oct-14 00:30N 30°08' W 093°19'0 0.0
2017-Oct-14 00:01N 30°08' W 093°19'0 0.0
2017-Oct-13 23:31N 30°08' W 093°19'0 0.0
2017-Oct-13 23:00N 30°08' W 093°19'0 0.0
2017-Oct-13 22:30N 30°08' W 093°19'0 0.0
2017-Oct-13 22:01N 30°08' W 093°19'0 0.0
2017-Oct-13 21:30N 30°08' W 093°19'0 0.0
2017-Oct-13 21:01N 30°08' W 093°19'0 0.6
2017-Oct-13 20:30N 30°08' W 093°20'2 4.6
2017-Oct-13 20:01N 30°06' W 093°19'2 4.0
2017-Oct-13 19:31N 30°06' W 093°17'0 0.1
2017-Oct-13 19:01N 30°06' W 093°17'0 0.0
2017-Oct-13 18:31N 30°06' W 093°17'0 0.0
2017-Oct-13 18:00N 30°06' W 093°17'0 0.0
2017-Oct-13 17:31N 30°06' W 093°17'0 0.0
2017-Oct-13 17:00N 30°06' W 093°17'0 0.0
2017-Oct-13 16:31N 30°06' W 093°17'0 0.0
2017-Oct-13 16:01N 30°06' W 093°17'0 0.0
2017-Oct-13 15:30N 30°06' W 093°17'0 0.0
2017-Oct-13 15:01N 30°06' W 093°17'0 0.0
2017-Oct-13 14:31N 30°06' W 093°17'0 0.0
2017-Oct-13 14:00N 30°06' W 093°17'0 0.0
2017-Oct-13 13:30N 30°06' W 093°17'0 0.0
2017-Oct-13 13:01N 30°06' W 093°17'0 0.0
2017-Oct-13 12:31N 30°06' W 093°17'0 0.0
2017-Oct-13 12:01N 30°06' W 093°17'0 0.0
2017-Oct-13 11:31N 30°06' W 093°17'0 0.0
2017-Oct-13 11:01N 30°06' W 093°17'0 0.0
2017-Oct-13 10:30N 30°06' W 093°17'0 0.0
2017-Oct-13 10:01N 30°06' W 093°17'0 0.0
2017-Oct-13 09:30N 30°06' W 093°17'0 0.0
2017-Oct-13 09:01N 30°06' W 093°17'0 0.0
2017-Oct-13 08:30N 30°06' W 093°17'0 0.0
2017-Oct-13 08:01N 30°06' W 093°17'0 0.0
2017-Oct-13 07:31N 30°06' W 093°17'0 0.0
2017-Oct-13 07:01N 30°06' W 093°17'0 0.0
2017-Oct-13 06:30N 30°06' W 093°17'0 0.0
2017-Oct-13 06:00N 30°06' W 093°17'0 0.0
2017-Oct-13 05:31N 30°06' W 093°17'0 0.0
2017-Oct-13 05:00N 30°06' W 093°17'0 0.0
2017-Oct-13 04:30N 30°06' W 093°17'0 0.0
2017-Oct-13 04:00N 30°06' W 093°17'0 0.0
2017-Oct-13 03:30N 30°06' W 093°17'0 0.0
2017-Oct-13 03:00N 30°06' W 093°17'0 0.0
2017-Oct-13 02:30N 30°06' W 093°17'0 0.0
2017-Oct-13 02:00N 30°06' W 093°17'0 0.0
2017-Oct-13 01:30N 30°06' W 093°17'0 0.0
2017-Oct-13 01:00N 30°06' W 093°17'0 0.0
2017-Oct-13 00:30N 30°06' W 093°17'0 0.3
2017-Oct-13 00:01N 30°06' W 093°17'2 4.1
2017-Oct-12 23:30N 30°06' W 093°20'2 4.5
2017-Oct-12 23:01N 30°08' W 093°19'0 0.0
2017-Oct-12 22:31N 30°08' W 093°19'0 0.0
2017-Oct-12 22:01N 30°08' W 093°19'0 0.0
2017-Oct-12 21:31N 30°08' W 093°19'0 0.0
2017-Oct-12 21:00N 30°08' W 093°19'0 0.0
2017-Oct-12 20:31N 30°08' W 093°19'0 0.0
2017-Oct-12 20:01N 30°08' W 093°19'0 0.0
2017-Oct-12 19:30N 30°08' W 093°19'0 0.0
2017-Oct-12 19:01N 30°08' W 093°19'0 0.0
2017-Oct-12 18:30N 30°08' W 093°19'0 0.0
2017-Oct-12 18:01N 30°08' W 093°19'0 0.0
2017-Oct-12 17:31N 30°08' W 093°19'0 0.0
2017-Oct-12 17:01N 30°08' W 093°19'0 0.0
2017-Oct-12 16:31N 30°08' W 093°19'0 0.0
2017-Oct-12 16:00N 30°08' W 093°19'0 0.0
2017-Oct-12 15:31N 30°08' W 093°19'0 0.0
2017-Oct-12 15:01N 30°08' W 093°19'0 0.0
2017-Oct-12 14:31N 30°08' W 093°19'0 0.0
2017-Oct-12 14:01N 30°08' W 093°19'0 0.0
2017-Oct-12 13:30N 30°08' W 093°19'0 0.0
2017-Oct-12 13:00N 30°08' W 093°19'0 0.0
2017-Oct-12 12:31N 30°08' W 093°19'0 0.0
2017-Oct-12 12:01N 30°08' W 093°19'0 0.0
2017-Oct-12 11:31N 30°08' W 093°19'0 0.0
2017-Oct-12 11:01N 30°08' W 093°19'0 0.0
2017-Oct-12 10:30N 30°08' W 093°19'0 0.0
2017-Oct-12 10:00N 30°08' W 093°19'0 0.0
2017-Oct-12 09:31N 30°08' W 093°19'0 0.0
2017-Oct-12 09:01N 30°08' W 093°19'0 0.0
2017-Oct-12 08:31N 30°08' W 093°19'0 0.0
2017-Oct-12 08:01N 30°08' W 093°19'0 0.0
2017-Oct-12 07:30N 30°08' W 093°19'0 0.0
2017-Oct-12 07:00N 30°08' W 093°19'0 0.0
2017-Oct-12 06:31N 30°08' W 093°19'0 0.0
2017-Oct-12 06:00N 30°08' W 093°19'0 0.0
2017-Oct-12 05:31N 30°08' W 093°19'0 0.0
2017-Oct-12 05:00N 30°08' W 093°19'0 0.0
2017-Oct-12 04:31N 30°08' W 093°19'0 0.0
2017-Oct-12 04:01N 30°08' W 093°19'0 0.0
2017-Oct-12 03:31N 30°08' W 093°19'0 0.0
2017-Oct-12 03:01N 30°08' W 093°19'0 0.0
2017-Oct-12 02:31N 30°08' W 093°19'0 0.0
2017-Oct-12 02:00N 30°08' W 093°19'0 0.2
2017-Oct-12 01:31N 30°08' W 093°19'1 3.0
2017-Oct-12 01:01N 30°10' W 093°19'3 5.7
2017-Oct-12 00:31N 30°12' W 093°17'2 4.8
2017-Oct-12 00:01N 30°13' W 093°15'2 4.4
2017-Oct-11 23:31N 30°15' W 093°14'1 2.6
2017-Oct-11 23:01N 30°15' W 093°13'1 2.6
2017-Oct-11 22:30N 30°16' W 093°12'2 3.5
2017-Oct-11 22:01N 30°18' W 093°11'1 1.7
2017-Oct-11 21:25N 30°18' W 093°10'1 1.9
2017-Oct-11 21:01N 30°18' W 093°09'0 0.0
2017-Oct-09 19:10N 30°18' W 093°09'1 3.3
2017-Oct-09 18:57N 30°19' W 093°10'1 2.6
2017-Oct-09 18:30N 30°18' W 093°11'1 2.7
2017-Oct-09 18:01N 30°17' W 093°12'1 0.2
2017-Oct-09 15:03N 30°16' W 093°12'0 0.0
2017-Oct-09 15:01N 30°16' W 093°12'0 0.0
2017-Oct-09 03:43N 30°16' W 093°12'0 0.0
2017-Oct-09 03:26N 30°16' W 093°12'0 0.0
2017-Oct-09 03:00N 30°16' W 093°12'  

Dump ship's entire track history